Latest Weather Observations for Shark Bay Airport

IDW60801

Issued at 11:43 am WST Monday 18 November 2019 (issued every 10 minutes, with the page automatically refreshed every 10 minutes)

About weather observations | Map of weather stations | Latest weather observations for WA | Other Formats
Station Details ID: 006105 Name: SHARK BAY AIRPORT Lat: -25.89 Lon: 113.58 Height: 33.8 m
Data from the previous 72 hours. | See also: Recent months at Shark Bay Airport
Date/Time
WST
Temp
°C
App
Temp
°C
Dew
Point
°C
Rel
Hum
%
Delta-T
°C
Wind Press
QNH
hPa
Press
MSL
hPa
Rain since
9am
mm
Dir  Spd
km/h
Gust
km/h
Spd
kts
Gust
kts
18/11:30am 29.9 28.3 18.3 49 7.5 SSW 24 32 13 17 1012.4 1012.3 0.0
18/11:00am 30.1 27.3 17.2 46 8.2 SSW 28 35 15 19 1012.8 1012.7 0.0
18/10:30am 29.5 26.6 17.0 47 7.9 SSW 28 33 15 18 1013.1 1013.0 0.0
18/10:00am 27.8 25.9 18.5 57 6.0 SSW 26 32 14 17 1013.6 1013.5 0.0
18/09:30am 26.9 23.9 17.7 57 5.8 SSW 30 39 16 21 1013.9 1013.8 0.0
18/09:00am 26.3 24.9 18.9 63 4.7 SSW 24 35 13 19 1014.0 1013.9 0.0
18/08:30am 26.8 25.2 18.4 60 5.4 S 24 35 13 19 1014.0 1013.9 0.0
18/08:00am 25.6 24.1 18.5 65 4.5 S 24 32 13 17 1014.1 1014.0 0.0
18/07:30am 24.4 23.4 18.8 71 3.6 S 22 32 12 17 1014.0 1013.9 0.0
18/07:00am 22.9 21.2 18.9 78 2.5 S 26 35 14 19 1014.0 1013.9 0.0
18/06:30am 21.7 20.8 19.1 85 1.6 S 22 30 12 16 1013.7 1013.6 0.0
18/06:00am 20.6 19.9 18.7 89 1.2 S 20 28 11 15 1013.5 1013.4 0.0
18/05:30am 20.2 19.7 18.7 91 0.9 SSW 19 26 10 14 1013.7 1013.6 0.0
18/05:00am 20.3 19.7 18.8 91 0.9 S 20 28 11 15 1013.6 1013.5 0.0
18/04:30am 20.3 19.2 18.6 90 1.1 S 22 32 12 17 1013.3 1013.2 0.0
18/04:00am 20.2 19.6 18.5 90 1.1 S 19 26 10 14 1013.6 1013.5 0.0
18/03:30am 20.4 19.9 18.7 90 1.1 SSE 19 26 10 14 1013.6 1013.5 0.0
18/03:00am 20.6 20.0 18.9 90 1.1 S 20 30 11 16 1013.2 1013.1 0.0
18/02:30am 20.7 20.2 19.0 90 1.1 S 20 30 11 16 1013.3 1013.2 0.0
18/02:00am 21.1 19.6 19.4 90 1.1 S 26 32 14 17 1013.2 1013.1 0.0
18/01:30am 20.9 19.6 19.0 89 1.2 S 24 37 13 20 1013.1 1013.0 0.0
18/01:00am 21.0 19.6 18.9 88 1.3 S 24 35 13 19 1013.5 1013.4 0.0
18/12:30am 21.2 19.9 19.1 88 1.3 S 24 35 13 19 1013.6 1013.5 0.0
18/12:00am 21.3 20.1 19.2 88 1.3 SSW 24 35 13 19 1013.9 1013.8 0.0
 
Date/Time
WST
Temp
°C
App
Temp
°C
Dew
Point
°C
Rel
Hum
%
Delta-T
°C
Wind Press
QNH
hPa
Press
MSL
hPa
Rain since
9am
mm
Dir  Spd
km/h
Gust
km/h
Spd
kts
Gust
kts
17/11:30pm 21.5 20.0 19.4 88 1.3 SSW 26 35 14 19 1014.5 1014.4 0.0
17/11:00pm 21.8 20.3 19.5 87 1.5 S 26 37 14 20 1014.5 1014.4 0.0
17/10:30pm 21.7 21.0 19.6 88 1.3 S 22 32 12 17 1014.7 1014.6 0.0
17/10:00pm 21.6 21.3 19.5 88 1.3 S 20 26 11 14 1014.7 1014.6 0.0
17/09:30pm 21.8 19.8 19.2 85 1.6 S 28 41 15 22 1014.6 1014.5 0.0
17/09:00pm 22.1 21.3 20.0 88 1.3 SSW 24 33 13 18 1014.4 1014.3 0.0
17/08:30pm 22.2 20.8 19.7 86 1.6 SSW 26 35 14 19 1014.3 1014.2 0.0
17/08:00pm 22.4 20.2 19.6 84 1.8 SSW 30 39 16 21 1014.0 1013.9 0.0
17/07:30pm 22.9 20.7 19.5 81 2.2 SSW 30 41 16 22 1013.7 1013.6 0.0
17/07:00pm 23.5 21.3 19.6 79 2.5 SSW 30 39 16 21 1013.6 1013.5 0.0
17/06:30pm 24.4 21.7 19.2 73 3.3 SSW 32 43 17 23 1013.3 1013.2 0.0
17/06:00pm 25.5 23.8 19.9 71 3.6 SSW 28 39 15 21 1012.9 1012.8 0.0
17/05:30pm 26.4 23.5 19.3 65 4.6 SSW 33 43 18 23 1012.8 1012.7 0.0
17/05:00pm 26.6 23.4 20.2 68 4.2 SW 37 48 20 26 1012.7 1012.6 0.0
17/04:30pm 27.5 24.9 20.6 66 4.5 SW 35 50 19 27 1012.6 1012.5 0.0
17/04:00pm 28.1 25.1 19.9 61 5.4 SW 35 44 19 24 1012.9 1012.8 0.0
17/03:30pm 29.9 28.9 20.5 57 6.2 SW 26 35 14 19 1013.5 1013.4 0.0
17/03:00pm 30.5 29.9 20.4 54 6.7 SW 24 33 13 18 1013.6 1013.5 0.0
17/02:30pm 31.1 29.9 20.1 52 7.3 SW 26 35 14 19 1014.0 1013.9 0.0
17/02:00pm 31.5 30.7 20.1 50 7.5 SW 24 37 13 20 1014.1 1014.0 0.0
17/01:30pm 30.6 30.2 20.2 53 6.9 SW 22 35 12 19 1014.2 1014.1 0.0
17/01:00pm 30.7 30.1 20.6 54 6.7 SW 24 33 13 18 1014.5 1014.4 0.0
17/12:30pm 30.4 28.4 19.1 50 7.4 SW 28 35 15 19 1014.6 1014.5 0.0
17/12:00pm 31.1 29.6 18.5 47 8.1 SW 24 32 13 17 1014.6 1014.5 0.0
17/11:30am 31.4 28.5 15.0 37 10.1 SW 24 33 13 18 1014.9 1014.8 0.0
17/11:00am 30.7 27.2 13.5 35 10.3 SW 24 32 13 17 1015.4 1015.3 0.0
17/10:30am 28.9 26.4 16.1 46 7.9 SW 24 32 13 17 1015.6 1015.5 0.0
17/10:00am 28.4 27.7 19.6 59 5.7 SSW 22 32 12 17 1015.7 1015.6 0.0
17/09:30am 27.5 26.9 19.8 63 5.0 SW 22 30 12 16 1016.0 1015.9 0.0
17/09:00am 27.2 27.0 19.8 64 4.8 SW 20 28 11 15 1016.1 1016.0 0.0
17/08:30am 28.4 28.2 15.7 46 7.8 S 11 17 6 9 1016.2 1016.1 0.0
17/08:00am 27.1 26.6 17.0 54 6.3 SSE 15 20 8 11 1016.1 1016.0 0.0
17/07:30am 24.9 25.9 19.5 72 3.5 S 13 19 7 10 1016.2 1016.1 0.0
17/07:00am 23.0 23.4 19.8 82 2.1 S 17 24 9 13 1015.8 1015.7 0.0
17/06:30am 21.5 22.5 19.4 88 1.3 S 13 17 7 9 1016.0 1015.9 0.0
17/06:00am 20.0 20.7 18.8 93 0.8 SSW 13 15 7 8 1015.8 1015.7 0.0
17/05:30am 19.9 20.5 18.6 92 0.8 SE 13 15 7 8 1016.0 1015.9 0.0
17/05:00am 20.3 21.1 19.1 93 0.8 S 13 17 7 9 1015.3 1015.2 0.0
17/04:30am 20.5 21.4 19.2 92 0.8 S 13 19 7 10 1015.1 1015.0 0.0
17/04:00am 20.7 21.4 18.8 89 1.2 SSE 13 20 7 11 1015.5 1015.4 0.0
17/03:30am 21.2 21.6 19.1 88 1.3 S 15 20 8 11 1015.0 1014.9 0.0
17/03:00am 21.3 20.8 19.2 88 1.3 S 20 28 11 15 1014.9 1014.8 0.0
17/02:30am 21.1 20.6 19.0 88 1.3 S 20 30 11 16 1014.6 1014.5 0.0
17/02:00am 21.5 20.6 19.1 86 1.5 SSW 22 30 12 16 1015.0 1014.9 0.0
17/01:30am 21.8 21.6 19.7 88 1.3 SSW 20 28 11 15 1015.1 1015.0 0.0
17/01:00am 21.4 21.7 19.5 89 1.2 SW 17 20 9 11 1015.3 1015.2 0.0
17/12:30am 21.4 21.2 19.3 88 1.3 SW 19 26 10 14 1015.1 1015.0 0.0
17/12:00am 21.6 21.1 19.2 86 1.5 SW 20 30 11 16 1015.0 1014.9 0.0
 
Date/Time
WST
Temp
°C
App
Temp
°C
Dew
Point
°C
Rel
Hum
%
Delta-T
°C
Wind Press
QNH
hPa
Press
MSL
hPa
Rain since
9am
mm
Dir  Spd
km/h
Gust
km/h
Spd
kts
Gust
kts
16/11:30pm 21.9 21.6 19.6 87 1.5 WSW 20 26 11 14 1015.5 1015.4 0.0
16/11:00pm 22.2 21.7 19.0 82 2.0 SW 20 30 11 16 1015.8 1015.7 0.0
16/10:30pm 21.8 21.6 19.4 86 1.5 SSW 19 22 10 12 1016.0 1015.9 0.0
16/10:00pm 21.4 21.0 19.0 86 1.5 SSW 19 22 10 12 1016.2 1016.1 0.0
16/09:30pm 21.9 22.6 18.9 83 1.9 S 13 17 7 9 1017.3 1017.2 0.0
16/09:00pm 22.4 22.4 19.0 81 2.2 SSE 17 30 9 16 1018.6 1018.5 0.0
16/08:40pm 22.2 22.7 19.2 83 1.9 SE 15 28 8 15 1018.2 1018.1 0.0
16/08:30pm 22.2 22.6 19.0 82 2.0 SSW 15 22 8 12 1016.2 1016.1 0.0
16/08:00pm 22.6 22.1 19.0 80 2.3 SSW 20 26 11 14 1015.7 1015.6 0.0
16/07:30pm 22.7 21.5 19.3 81 2.2 SW 24 32 13 17 1014.9 1014.8 0.0
16/07:00pm 23.0 21.5 19.4 80 2.3 SW 26 35 14 19 1013.9 1013.8 0.0
16/06:30pm 23.6 21.2 19.1 76 2.9 SW 30 39 16 21 1013.0 1012.9 0.0
16/06:00pm 24.5 22.6 19.3 73 3.3 SW 28 35 15 19 1013.4 1013.3 0.0
16/05:30pm 25.7 23.9 19.6 69 3.9 SW 28 43 15 23 1013.3 1013.2 0.0
16/05:00pm 26.0 24.0 19.2 66 4.4 SW 28 39 15 21 1013.2 1013.1 0.0
16/04:30pm 27.2 25.0 18.8 60 5.4 WSW 28 35 15 19 1013.4 1013.3 0.0
16/04:00pm 27.3 25.3 18.3 58 5.7 WSW 26 35 14 19 1013.3 1013.2 0.0
16/03:30pm 28.0 25.8 18.7 57 6.0 SW 28 37 15 20 1013.3 1013.2 0.0
16/03:00pm 28.4 26.1 18.5 55 6.3 WSW 28 37 15 20 1013.3 1013.2 0.0
16/02:30pm 29.2 27.0 18.6 52 6.8 SW 28 35 15 19 1013.4 1013.3 0.0
16/02:00pm 29.6 27.8 18.7 52 7.0 WSW 26 33 14 18 1013.5 1013.4 0.0
16/01:30pm 29.8 28.4 18.9 52 7.1 SW 24 35 13 19 1013.7 1013.6 0.0
16/01:00pm 30.3 28.4 17.7 46 8.0 WSW 24 35 13 19 1013.9 1013.8 0.0
16/12:30pm 30.7 29.2 17.7 45 8.3 WSW 22 30 12 16 1013.8 1013.7 0.0
16/12:00pm 29.3 27.7 17.5 49 7.5 WSW 22 30 12 16 1013.9 1013.8 0.0
16/11:30am 29.6 28.5 17.8 49 7.5 WSW 20 28 11 15 1014.2 1014.1 0.0
16/11:00am 29.8 28.4 18.9 52 7.1 W 24 32 13 17 1014.2 1014.1 0.0
16/10:30am 29.4 29.5 19.1 54 6.7 SW 17 22 9 12 1014.2 1014.1 0.0
16/10:00am 28.1 28.0 18.8 57 6.0 SW 17 24 9 13 1014.3 1014.2 0.0
16/09:30am 27.3 27.7 18.9 60 5.4 SW 15 20 8 11 1014.3 1014.2 0.0
16/09:00am 26.6 27.2 18.7 62 5.1 SW 13 17 7 9 1014.6 1014.5 0.0
16/08:30am 26.4 27.8 19.5 66 4.5 SW 11 17 6 9 1014.5 1014.4 0.0
16/08:00am 25.9 26.9 19.5 68 4.1 SW 13 17 7 9 1014.3 1014.2 0.0
16/07:30am 24.6 26.1 19.7 74 3.2 WSW 11 17 6 9 1014.2 1014.1 0.0
16/07:00am 22.7 24.9 19.7 83 1.9 WSW 7 11 4 6 1014.0 1013.9 0.0
16/06:30am 20.5 22.8 19.5 94 0.6 SW 6 7 3 4 1013.8 1013.7 0.0
16/06:00am 18.7 20.3 17.9 95 0.5 SW 6 7 3 4 1013.4 1013.3 0.0
16/05:30am 19.0 20.5 18.0 94 0.6 S 7 7 4 4 1013.3 1013.2 0.0
16/05:00am 19.0 19.7 18.0 94 0.6 S 11 13 6 7 1013.0 1012.9 0.0
16/04:30am 19.0 20.3 17.5 91 0.9 SSW 7 9 4 5 1012.9 1012.8 0.0
16/04:00am 19.5 20.4 17.6 89 1.2 SSE 9 11 5 6 1012.8 1012.7 0.0
16/03:30am 20.2 21.6 17.8 86 1.5 SSE 7 9 4 5 1013.0 1012.9 0.0
16/03:00am 21.3 22.8 18.9 86 1.5 SSE 9 15 5 8 1013.1 1013.0 0.0
16/02:30am 21.1 22.4 18.5 85 1.6 SSE 9 13 5 7 1012.9 1012.8 0.0
16/02:00am 21.8 22.6 19.0 84 1.8 S 13 17 7 9 1013.1 1013.0 0.0
16/01:30am 21.6 21.9 18.8 84 1.8 S 15 20 8 11 1013.2 1013.1 0.0
16/01:00am 21.7 22.1 18.9 84 1.8 S 15 20 8 11 1013.1 1013.0 0.0
16/12:30am 21.9 21.5 18.9 83 1.9 S 19 26 10 14 1013.1 1013.0 0.0
16/12:00am 22.1 22.2 19.1 83 1.9 S 17 26 9 14 1013.1 1013.0 0.0
 
Date/Time
WST
Temp
°C
App
Temp
°C
Dew
Point
°C
Rel
Hum
%
Delta-T
°C
Wind Press
QNH
hPa
Press
MSL
hPa
Rain since
9am
mm
Dir  Spd
km/h
Gust
km/h
Spd
kts
Gust
kts
15/11:30pm 22.3 22.5 19.3 83 1.9 S 17 22 9 12 1013.4 1013.3 0.0
15/11:00pm 22.2 21.9 19.6 85 1.7 SSW 20 30 11 16 1013.1 1013.0 0.0
15/10:30pm 22.0 20.4 19.2 84 1.8 SW 26 35 14 19 1012.5 1012.4 0.0
15/10:00pm 22.2 21.1 19.4 84 1.8 SW 24 32 13 17 1013.2 1013.1 0.0
15/09:30pm 22.3 22.2 19.5 84 1.8 SW 19 28 10 15 1013.4 1013.3 0.0
15/09:00pm 22.5 22.3 19.7 84 1.8 SW 20 30 11 16 1013.4 1013.3 0.0
15/08:30pm 22.6 22.4 19.8 84 1.8 SW 20 28 11 15 1013.2 1013.1 0.0
15/08:00pm 22.8 22.5 19.6 82 2.0 SW 20 30 11 16 1012.9 1012.8 0.0
15/07:30pm 23.4 22.7 19.5 79 2.5 SW 22 28 12 15 1012.8 1012.7 0.0
15/07:00pm 24.1 23.3 19.2 74 3.1 SW 22 28 12 15 1012.4 1012.3 0.0
15/06:30pm 25.1 24.1 18.8 68 4.0 WSW 22 26 12 14 1011.8 1011.7 0.0
15/06:00pm 26.5 25.6 17.8 58 5.5 WSW 19 26 10 14 1011.5 1011.4 0.0
15/05:30pm 27.6 26.5 17.7 54 6.3 WSW 20 26 11 14 1011.3 1011.2 0.0
15/05:00pm 28.5 27.5 18.0 53 6.7 WSW 20 30 11 16 1011.3 1011.2 0.0
15/04:30pm 28.2 27.0 18.3 55 6.3 WSW 22 28 12 15 1011.2 1011.1 0.0
15/04:00pm 29.0 27.8 18.4 52 6.8 WSW 22 30 12 16 1011.3 1011.2 0.0
15/03:30pm 29.8 28.0 17.9 48 7.6 WSW 24 32 13 17 1011.5 1011.4 0.0
15/03:00pm 30.9 27.9 14.9 37 9.8 W 24 30 13 16 1011.7 1011.6 0.0
15/02:30pm 30.3 27.6 15.6 41 9.1 W 24 32 13 17 1012.0 1011.9 0.0
15/02:00pm 31.0 29.6 16.6 42 9.1 W 19 28 10 15 1012.2 1012.1 0.0
15/01:30pm 30.7 29.5 17.0 43 8.7 WSW 19 28 10 15 1012.7 1012.6 0.0
15/01:00pm 30.3 29.0 16.7 44 8.6 WSW 19 26 10 14 1012.9 1012.8 0.0
15/12:30pm 29.6 28.2 17.1 47 7.9 W 20 28 11 15 1013.2 1013.1 0.0
15/12:00pm 29.8 29.1 19.5 54 6.7 W 22 30 12 16 1013.5 1013.4 0.0

Other formats

Comma delimited format used in spreadsheet applications
http://www.bom.gov.au/fwo/IDW60801/IDW60801.95402.axf

JavaScript Object Notation format (JSON) in row-major order
http://www.bom.gov.au/fwo/IDW60801/IDW60801.95402.json

Data quality

Most of these data are generated automatically and are frequently updated. Quality checks on data are not normally performed. It is possible for incorrect values to appear. Refer to information at About Latest Weather Observations and please check the disclaimer before using these data.